sensor_id;sensor_type;location;lat;lon;timestamp;pressure;altitude;pressure_sealevel;temperature;humidity
75146;BME280;63641;46.526;24.612;2023-09-30T00:00:07;97846.97;;;10.71;69.65
75146;BME280;63641;46.526;24.612;2023-09-30T00:02:36;97829.13;;;10.64;69.44
75146;BME280;63641;46.526;24.612;2023-09-30T00:05:03;97808.53;;;10.53;69.54
75146;BME280;63641;46.526;24.612;2023-09-30T00:07:30;97826.41;;;10.64;69.71
75146;BME280;63641;46.526;24.612;2023-09-30T00:09:58;97842.09;;;10.62;69.69
75146;BME280;63641;46.526;24.612;2023-09-30T00:12:25;97829.09;;;10.54;69.86
75146;BME280;63641;46.526;24.612;2023-09-30T00:14:53;97841.25;;;10.52;69.95
75146;BME280;63641;46.526;24.612;2023-09-30T00:17:20;97816.91;;;10.36;70.22
75146;BME280;63641;46.526;24.612;2023-09-30T00:19:47;97829.88;;;10.45;70.34
75146;BME280;63641;46.526;24.612;2023-09-30T00:22:13;97833.16;;;10.47;70.38
75146;BME280;63641;46.526;24.612;2023-09-30T00:24:40;97835.56;;;10.43;70.72
75146;BME280;63641;46.526;24.612;2023-09-30T00:27:07;97820.69;;;10.35;70.68
75146;BME280;63641;46.526;24.612;2023-09-30T00:29:34;97821.75;;;10.34;70.78
75146;BME280;63641;46.526;24.612;2023-09-30T00:32:02;97819.31;;;10.33;70.84
75146;BME280;63641;46.526;24.612;2023-09-30T00:34:32;97817.69;;;10.37;70.87
75146;BME280;63641;46.526;24.612;2023-09-30T00:36:59;97825.00;;;10.31;70.83
75146;BME280;63641;46.526;24.612;2023-09-30T00:39:25;97821.22;;;10.32;70.71
75146;BME280;63641;46.526;24.612;2023-09-30T00:41:57;97824.16;;;10.31;70.92
75146;BME280;63641;46.526;24.612;2023-09-30T00:44:27;97823.13;;;10.32;70.94
75146;BME280;63641;46.526;24.612;2023-09-30T00:46:54;97810.66;;;10.26;70.98
75146;BME280;63641;46.526;24.612;2023-09-30T00:49:25;97812.53;;;10.25;70.96
75146;BME280;63641;46.526;24.612;2023-09-30T00:51:53;97818.50;;;10.27;71.02
75146;BME280;63641;46.526;24.612;2023-09-30T00:54:22;97818.75;;;10.26;71.00
75146;BME280;63641;46.526;24.612;2023-09-30T00:56:50;97789.22;;;10.09;70.63
75146;BME280;63641;46.526;24.612;2023-09-30T00:59:19;97812.47;;;10.15;71.21
75146;BME280;63641;46.526;24.612;2023-09-30T01:01:46;97817.09;;;10.14;71.21
75146;BME280;63641;46.526;24.612;2023-09-30T01:04:14;97817.34;;;10.13;71.17
75146;BME280;63641;46.526;24.612;2023-09-30T01:06:42;97806.50;;;10.08;71.29
75146;BME280;63641;46.526;24.612;2023-09-30T01:09:10;97813.81;;;10.07;71.34
75146;BME280;63641;46.526;24.612;2023-09-30T01:11:36;97825.44;;;10.08;71.51
75146;BME280;63641;46.526;24.612;2023-09-30T01:14:03;97820.56;;;10.05;71.35
75146;BME280;63641;46.526;24.612;2023-09-30T01:16:30;97818.13;;;10.03;71.37
75146;BME280;63641;46.526;24.612;2023-09-30T01:18:57;97801.63;;;10.00;71.37
75146;BME280;63641;46.526;24.612;2023-09-30T01:21:24;97804.88;;;10.02;71.46
75146;BME280;63641;46.526;24.612;2023-09-30T01:23:54;97820.56;;;10.05;71.08
75146;BME280;63641;46.526;24.612;2023-09-30T01:26:21;97811.34;;;9.96;71.16
75146;BME280;63641;46.526;24.612;2023-09-30T01:28:49;97820.03;;;10.03;71.22
75146;BME280;63641;46.526;24.612;2023-09-30T01:31:15;97815.13;;;10.00;71.24
75146;BME280;63641;46.526;24.612;2023-09-30T01:33:42;97814.06;;;10.01;71.13
75146;BME280;63641;46.526;24.612;2023-09-30T01:36:10;97794.56;;;9.88;70.78
75146;BME280;63641;46.526;24.612;2023-09-30T01:38:37;97809.97;;;9.93;71.19
75146;BME280;63641;46.526;24.612;2023-09-30T01:41:04;97812.41;;;9.89;70.92
75146;BME280;63641;46.526;24.612;2023-09-30T01:43:31;97814.56;;;9.92;71.04
75146;BME280;63641;46.526;24.612;2023-09-30T01:45:57;97808.88;;;9.89;70.96
75146;BME280;63641;46.526;24.612;2023-09-30T01:48:25;97807.78;;;9.80;71.10
75146;BME280;63641;46.526;24.612;2023-09-30T01:50:52;97809.94;;;9.83;71.13
75146;BME280;63641;46.526;24.612;2023-09-30T01:53:18;97814.53;;;9.77;71.35
75146;BME280;63641;46.526;24.612;2023-09-30T01:55:45;97819.91;;;9.77;71.39
75146;BME280;63641;46.526;24.612;2023-09-30T01:58:12;97811.25;;;9.75;71.56
75146;BME280;63641;46.526;24.612;2023-09-30T02:00:39;97810.44;;;9.75;71.56
75146;BME280;63641;46.526;24.612;2023-09-30T02:03:06;97802.84;;;9.66;71.58
75146;BME280;63641;46.526;24.612;2023-09-30T02:05:34;97810.16;;;9.71;71.68
75146;BME280;63641;46.526;24.612;2023-09-30T02:08:00;97811.53;;;9.68;71.79
75146;BME280;63641;46.526;24.612;2023-09-30T02:10:33;97813.66;;;9.66;72.07
75146;BME280;63641;46.526;24.612;2023-09-30T02:13:00;97812.28;;;9.64;72.14
75146;BME280;63641;46.526;24.612;2023-09-30T02:15:28;97807.41;;;9.61;72.49
75146;BME280;63641;46.526;24.612;2023-09-30T02:17:54;97810.38;;;9.64;72.27
75146;BME280;63641;46.526;24.612;2023-09-30T02:20:21;97787.94;;;9.54;71.97
75146;BME280;63641;46.526;24.612;2023-09-30T02:22:52;97797.16;;;9.58;71.99
75146;BME280;63641;46.526;24.612;2023-09-30T02:25:20;97800.91;;;9.57;71.93
75146;BME280;63641;46.526;24.612;2023-09-30T02:27:47;97802.28;;;9.59;72.30
75146;BME280;63641;46.526;24.612;2023-09-30T02:30:14;97803.34;;;9.58;72.16
75146;BME280;63641;46.526;24.612;2023-09-30T02:32:43;97808.47;;;9.60;72.13
75146;BME280;63641;46.526;24.612;2023-09-30T02:35:13;97785.47;;;9.47;72.07
75146;BME280;63641;46.526;24.612;2023-09-30T02:37:42;97802.78;;;9.56;72.11
75146;BME280;63641;46.526;24.612;2023-09-30T02:40:09;97805.25;;;9.58;72.27
75146;BME280;63641;46.526;24.612;2023-09-30T02:42:37;97805.25;;;9.58;72.20
75146;BME280;63641;46.526;24.612;2023-09-30T02:45:05;97792.50;;;9.53;72.13
75146;BME280;63641;46.526;24.612;2023-09-30T02:47:32;97797.09;;;9.53;72.18
75146;BME280;63641;46.526;24.612;2023-09-30T02:49:59;97803.03;;;9.50;71.94
75146;BME280;63641;46.526;24.612;2023-09-30T02:52:27;97796.53;;;9.46;71.96
75146;BME280;63641;46.526;24.612;2023-09-30T02:54:55;97805.19;;;9.48;71.99
75146;BME280;63641;46.526;24.612;2023-09-30T02:57:24;97793.28;;;9.43;71.91
75146;BME280;63641;46.526;24.612;2023-09-30T02:59:51;97802.19;;;9.44;71.87
75146;BME280;63641;46.526;24.612;2023-09-30T03:02:20;97789.72;;;9.38;71.74
75146;BME280;63641;46.526;24.612;2023-09-30T03:04:51;97787.56;;;9.35;71.67
75146;BME280;63641;46.526;24.612;2023-09-30T03:07:20;97788.63;;;9.34;71.50
75146;BME280;63641;46.526;24.612;2023-09-30T03:09:47;97794.31;;;9.37;71.61
75146;BME280;63641;46.526;24.612;2023-09-30T03:12:14;97791.31;;;9.29;71.91
75146;BME280;63641;46.526;24.612;2023-09-30T03:14:41;97796.72;;;9.29;72.00
75146;BME280;63641;46.526;24.612;2023-09-30T03:17:09;97794.25;;;9.27;72.30
75146;BME280;63641;46.526;24.612;2023-09-30T03:19:39;97789.94;;;9.21;72.30
75146;BME280;63641;46.526;24.612;2023-09-30T03:22:06;97799.66;;;9.27;72.24
75146;BME280;63641;46.526;24.612;2023-09-30T03:24:39;97798.84;;;9.27;72.34
75146;BME280;63641;46.526;24.612;2023-09-30T03:27:07;97773.91;;;9.09;72.40
75146;BME280;63641;46.526;24.612;2023-09-30T03:29:37;97806.16;;;9.26;72.31
75146;BME280;63641;46.526;24.612;2023-09-30T03:32:05;97794.78;;;9.24;72.29
75146;BME280;63641;46.526;24.612;2023-09-30T03:34:33;97772.78;;;9.05;72.36
75146;BME280;63641;46.526;24.612;2023-09-30T03:36:59;97799.66;;;9.22;72.29
75146;BME280;63641;46.526;24.612;2023-09-30T03:39:26;97798.84;;;9.22;72.24
75146;BME280;63641;46.526;24.612;2023-09-30T03:41:55;97802.63;;;9.21;72.24
75146;BME280;63641;46.526;24.612;2023-09-30T03:44:22;97794.75;;;9.14;72.38
75146;BME280;63641;46.526;24.612;2023-09-30T03:46:52;97798.25;;;9.14;72.36
75146;BME280;63641;46.526;24.612;2023-09-30T03:49:19;97788.47;;;9.08;72.44
75146;BME280;63641;46.526;24.612;2023-09-30T03:51:48;97799.56;;;9.12;72.43
75146;BME280;63641;46.526;24.612;2023-09-30T03:54:17;97798.19;;;9.09;72.22
75146;BME280;63641;46.526;24.612;2023-09-30T03:56:45;97808.19;;;9.09;72.22
75146;BME280;63641;46.526;24.612;2023-09-30T03:59:13;97799.56;;;9.07;72.19
75146;BME280;63641;46.526;24.612;2023-09-30T04:01:40;97808.97;;;9.04;72.07
75146;BME280;63641;46.526;24.612;2023-09-30T04:04:07;97798.16;;;8.99;72.14
75146;BME280;63641;46.526;24.612;2023-09-30T04:06:37;97798.09;;;8.94;72.14
75146;BME280;63641;46.526;24.612;2023-09-30T04:09:05;97805.38;;;8.93;72.10
75146;BME280;63641;46.526;24.612;2023-09-30T04:11:38;97809.16;;;8.92;71.98
75146;BME280;63641;46.526;24.612;2023-09-30T04:14:07;97812.94;;;8.91;72.05
75146;BME280;63641;46.526;24.612;2023-09-30T04:16:35;97803.47;;;8.89;72.07
75146;BME280;63641;46.526;24.612;2023-09-30T04:19:04;97805.56;;;8.82;72.19
75146;BME280;63641;46.526;24.612;2023-09-30T04:21:31;97808.84;;;8.84;71.97
75146;BME280;63641;46.526;24.612;2023-09-30T04:24:01;97807.47;;;8.81;72.24
75146;BME280;63641;46.526;24.612;2023-09-30T04:26:28;97815.59;;;8.86;72.23
75146;BME280;63641;46.526;24.612;2023-09-30T04:28:55;97822.06;;;8.85;72.18
75146;BME280;63641;46.526;24.612;2023-09-30T04:31:22;97800.94;;;8.77;72.27
75146;BME280;63641;46.526;24.612;2023-09-30T04:33:50;97809.03;;;8.77;72.05
75146;BME280;63641;46.526;24.612;2023-09-30T04:36:20;97827.44;;;8.80;72.44
75146;BME280;63641;46.526;24.612;2023-09-30T04:38:47;97831.16;;;8.79;72.31
75146;BME280;63641;46.526;24.612;2023-09-30T04:41:14;97824.13;;;8.73;72.30
75146;BME280;63641;46.526;24.612;2023-09-30T04:43:42;97837.38;;;8.80;72.26
75146;BME280;63641;46.526;24.612;2023-09-30T04:46:10;97834.16;;;8.83;72.31
75146;BME280;63641;46.526;24.612;2023-09-30T04:48:40;97840.66;;;8.82;72.20
75146;BME280;63641;46.526;24.612;2023-09-30T04:51:07;97836.56;;;8.79;72.30
75146;BME280;63641;46.526;24.612;2023-09-30T04:53:35;97825.47;;;8.76;72.28
75146;BME280;63641;46.526;24.612;2023-09-30T04:56:02;97831.97;;;8.80;72.39
75146;BME280;63641;46.526;24.612;2023-09-30T04:58:29;97833.31;;;8.77;72.37
75146;BME280;63641;46.526;24.612;2023-09-30T05:00:56;97837.38;;;8.80;72.32
75146;BME280;63641;46.526;24.612;2023-09-30T05:03:23;97840.38;;;8.83;72.43
75146;BME280;63641;46.526;24.612;2023-09-30T05:05:52;97842.56;;;8.86;72.78
75146;BME280;63641;46.526;24.612;2023-09-30T05:08:23;97814.91;;;8.69;72.63
75146;BME280;63641;46.526;24.612;2023-09-30T05:10:51;97846.91;;;8.87;72.94
75146;BME280;63641;46.526;24.612;2023-09-30T05:13:18;97835.56;;;8.85;73.05
75146;BME280;63641;46.526;24.612;2023-09-30T05:15:45;97846.44;;;8.95;73.35
75146;BME280;63641;46.526;24.612;2023-09-30T05:18:13;97837.81;;;8.99;73.64
75146;BME280;63641;46.526;24.612;2023-09-30T05:20:40;97823.13;;;8.84;73.54
75146;BME280;63641;46.526;24.612;2023-09-30T05:23:07;97845.94;;;9.04;73.59
75146;BME280;63641;46.526;24.612;2023-09-30T05:25:34;97846.25;;;9.07;73.69
75146;BME280;63641;46.526;24.612;2023-09-30T05:28:02;97845.16;;;9.08;74.02
75146;BME280;63641;46.526;24.612;2023-09-30T05:30:30;97856.31;;;9.17;73.91
75146;BME280;63641;46.526;24.612;2023-09-30T05:32:56;97845.81;;;9.21;74.31
75146;BME280;63641;46.526;24.612;2023-09-30T05:35:25;97845.25;;;9.18;74.30
75146;BME280;63641;46.526;24.612;2023-09-30T05:37:52;97849.91;;;9.28;74.02
75146;BME280;63641;46.526;24.612;2023-09-30T05:40:20;97853.72;;;9.32;74.08
75146;BME280;63641;46.526;24.612;2023-09-30T05:42:56;97840.22;;;9.32;74.38
75146;BME280;63641;46.526;24.612;2023-09-30T05:45:27;97828.31;;;9.28;74.37
75146;BME280;63641;46.526;24.612;2023-09-30T05:47:55;97845.41;;;9.44;74.48
75146;BME280;63641;46.526;24.612;2023-09-30T05:50:24;97849.78;;;9.50;74.66
75146;BME280;63641;46.526;24.612;2023-09-30T05:52:54;97846.03;;;9.56;74.82
75146;BME280;63641;46.526;24.612;2023-09-30T05:55:22;97842.00;;;9.64;75.22
75146;BME280;63641;46.526;24.612;2023-09-30T05:57:49;97839.06;;;9.65;75.20
75146;BME280;63641;46.526;24.612;2023-09-30T06:00:17;97837.19;;;9.71;75.37
75146;BME280;63641;46.526;24.612;2023-09-30T06:02:51;97846.44;;;9.85;75.38
75146;BME280;63641;46.526;24.612;2023-09-30T06:05:18;97825.31;;;9.77;75.40
75146;BME280;63641;46.526;24.612;2023-09-30T06:07:46;97835.38;;;9.92;75.70
75146;BME280;63641;46.526;24.612;2023-09-30T06:10:13;97841.88;;;9.91;75.61
75146;BME280;63641;46.526;24.612;2023-09-30T06:12:50;97841.13;;;10.06;75.87
75146;BME280;63641;46.526;24.612;2023-09-30T06:15:23;97851.44;;;10.14;75.93
75146;BME280;63641;46.526;24.612;2023-09-30T06:17:53;97845.00;;;10.25;76.08
75146;BME280;63641;46.526;24.612;2023-09-30T06:20:21;97853.69;;;10.32;76.24
75146;BME280;63641;46.526;24.612;2023-09-30T06:22:54;97835.28;;;10.29;76.14
75146;BME280;63641;46.526;24.612;2023-09-30T06:25:20;97837.19;;;10.39;76.24
75146;BME280;63641;46.526;24.612;2023-09-30T06:27:50;97845.31;;;10.49;76.56
75146;BME280;63641;46.526;24.612;2023-09-30T06:30:18;97847.22;;;10.59;76.67
75146;BME280;63641;46.526;24.612;2023-09-30T06:32:47;97845.63;;;10.68;76.72
75146;BME280;63641;46.526;24.612;2023-09-30T06:35:14;97848.34;;;10.73;76.72
75146;BME280;63641;46.526;24.612;2023-09-30T06:37:41;97844.00;;;10.77;76.94
75146;BME280;63641;46.526;24.612;2023-09-30T06:40:09;97852.13;;;10.93;76.91
75146;BME280;63641;46.526;24.612;2023-09-30T06:42:40;97850.53;;;11.02;76.95
75146;BME280;63641;46.526;24.612;2023-09-30T06:45:07;97839.69;;;11.02;77.13
75146;BME280;63641;46.526;24.612;2023-09-30T06:47:36;97845.34;;;11.16;77.07
75146;BME280;63641;46.526;24.612;2023-09-30T06:50:08;97854.56;;;11.25;77.13
75146;BME280;63641;46.526;24.612;2023-09-30T06:52:38;97852.09;;;11.33;77.24
75146;BME280;63641;46.526;24.612;2023-09-30T06:55:06;97854.00;;;11.53;76.87
75146;BME280;63641;46.526;24.612;2023-09-30T06:57:37;97855.84;;;11.68;77.08
75146;BME280;63641;46.526;24.612;2023-09-30T07:02:39;97856.03;;;12.02;76.59
75146;BME280;63641;46.526;24.612;2023-09-30T07:05:15;97845.91;;;12.18;76.23
75146;BME280;63641;46.526;24.612;2023-09-30T07:07:43;97852.34;;;12.38;75.90
75146;BME280;63641;46.526;24.612;2023-09-30T07:10:11;97858.69;;;12.67;75.70
75146;BME280;63641;46.526;24.612;2023-09-30T07:12:38;97859.06;;;12.90;75.25
75146;BME280;63641;46.526;24.612;2023-09-30T07:15:06;97835.63;;;12.99;75.14
75146;BME280;63641;46.526;24.612;2023-09-30T07:17:34;97858.72;;;13.36;74.38
75146;BME280;63641;46.526;24.612;2023-09-30T07:20:03;97860.94;;;13.58;73.73
75146;BME280;63641;46.526;24.612;2023-09-30T07:22:35;97861.47;;;13.84;73.07
75146;BME280;63641;46.526;24.612;2023-09-30T07:25:22;97853.34;;;14.08;71.85
75146;BME280;63641;46.526;24.612;2023-09-30T07:27:48;97843.84;;;14.24;71.40
75146;BME280;63641;46.526;24.612;2023-09-30T07:30:15;97854.09;;;14.56;70.91
75146;BME280;63641;46.526;24.612;2023-09-30T07:32:43;97847.47;;;14.81;70.52
75146;BME280;63641;46.526;24.612;2023-09-30T07:35:14;97844.72;;;15.00;70.15
75146;BME280;63641;46.526;24.612;2023-09-30T07:37:42;97854.38;;;15.25;69.63
75146;BME280;63641;46.526;24.612;2023-09-30T07:40:12;97842.31;;;15.45;68.95
75146;BME280;63641;46.526;24.612;2023-09-30T07:42:39;97848.81;;;15.63;67.98
75146;BME280;63641;46.526;24.612;2023-09-30T07:45:07;97851.47;;;15.82;67.35
75146;BME280;63641;46.526;24.612;2023-09-30T07:47:34;97852.19;;;16.01;66.63
75146;BME280;63641;46.526;24.612;2023-09-30T07:50:02;97849.06;;;16.22;65.79
75146;BME280;63641;46.526;24.612;2023-09-30T07:52:33;97842.78;;;16.35;64.96
75146;BME280;63641;46.526;24.612;2023-09-30T07:54:59;97845.16;;;16.50;64.07
75146;BME280;63641;46.526;24.612;2023-09-30T07:57:26;97851.28;;;16.70;63.84
75146;BME280;63641;46.526;24.612;2023-09-30T07:59:53;97853.69;;;16.85;63.69
75146;BME280;63641;46.526;24.612;2023-09-30T08:02:19;97844.13;;;16.96;63.07
75146;BME280;63641;46.526;24.612;2023-09-30T08:04:48;97842.16;;;17.10;62.54
75146;BME280;63641;46.526;24.612;2023-09-30T08:07:14;97846.75;;;17.24;61.88
75146;BME280;63641;46.526;24.612;2023-09-30T08:09:41;97840.81;;;17.30;61.57
75146;BME280;63641;46.526;24.612;2023-09-30T08:12:08;97840.91;;;17.39;61.43
75146;BME280;63641;46.526;24.612;2023-09-30T08:14:35;97837.25;;;17.52;60.98
75146;BME280;63641;46.526;24.612;2023-09-30T08:17:01;97840.03;;;17.61;60.61
75146;BME280;63641;46.526;24.612;2023-09-30T08:19:29;97833.00;;;17.69;60.70
75146;BME280;63641;46.526;24.612;2023-09-30T08:21:56;97832.09;;;17.82;60.17
75146;BME280;63641;46.526;24.612;2023-09-30T08:24:23;97834.28;;;18.02;59.64
75146;BME280;63641;46.526;24.612;2023-09-30T08:26:50;97836.91;;;18.16;59.25
75146;BME280;63641;46.526;24.612;2023-09-30T08:29:18;97830.19;;;18.31;58.76
75146;BME280;63641;46.526;24.612;2023-09-30T08:31:44;97830.84;;;18.45;58.39
75146;BME280;63641;46.526;24.612;2023-09-30T08:34:14;97823.75;;;18.62;57.83
75146;BME280;63641;46.526;24.612;2023-09-30T08:36:41;97829.28;;;18.79;57.34
75146;BME280;63641;46.526;24.612;2023-09-30T08:39:09;97831.06;;;19.01;57.07
75146;BME280;63641;46.526;24.612;2023-09-30T08:41:36;97821.69;;;19.19;56.50
75146;BME280;63641;46.526;24.612;2023-09-30T08:44:04;97825.19;;;19.37;56.13
75146;BME280;63641;46.526;24.612;2023-09-30T08:46:34;97826.09;;;19.59;55.87
75146;BME280;63641;46.526;24.612;2023-09-30T08:49:03;97822.00;;;19.82;55.36
75146;BME280;63641;46.526;24.612;2023-09-30T08:51:31;97811.97;;;19.86;55.09
75146;BME280;63641;46.526;24.612;2023-09-30T08:53:59;97826.09;;;20.06;54.89
75146;BME280;63641;46.526;24.612;2023-09-30T08:56:28;97821.69;;;20.13;54.28
75146;BME280;63641;46.526;24.612;2023-09-30T08:58:57;97827.91;;;20.31;54.11
75146;BME280;63641;46.526;24.612;2023-09-30T09:01:27;97822.34;;;20.40;54.00
75146;BME280;63641;46.526;24.612;2023-09-30T09:03:55;97817.59;;;20.49;53.64
75146;BME280;63641;46.526;24.612;2023-09-30T09:06:23;97823.03;;;20.66;53.55
75146;BME280;63641;46.526;24.612;2023-09-30T09:08:50;97826.63;;;20.79;53.13
75146;BME280;63641;46.526;24.612;2023-09-30T09:11:17;97812.69;;;20.84;52.85
75146;BME280;63641;46.526;24.612;2023-09-30T09:13:51;97818.56;;;20.95;52.21
75146;BME280;63641;46.526;24.612;2023-09-30T09:16:23;97814.28;;;21.06;52.08
75146;BME280;63641;46.526;24.612;2023-09-30T09:18:50;97807.09;;;21.14;51.82
75146;BME280;63641;46.526;24.612;2023-09-30T09:21:20;97820.53;;;21.28;51.63
75146;BME280;63641;46.526;24.612;2023-09-30T09:23:50;97813.69;;;21.34;51.46
75146;BME280;63641;46.526;24.612;2023-09-30T09:26:29;97812.47;;;21.43;50.82
75146;BME280;63641;46.526;24.612;2023-09-30T09:29:01;97799.28;;;21.49;50.59
75146;BME280;63641;46.526;24.612;2023-09-30T09:31:31;97802.16;;;21.65;49.89
75146;BME280;63641;46.526;24.612;2023-09-30T09:33:59;97796.91;;;21.72;49.28
75146;BME280;63641;46.526;24.612;2023-09-30T09:36:40;97792.78;;;21.78;49.17
75146;BME280;63641;46.526;24.612;2023-09-30T09:39:08;97803.34;;;21.88;49.35
75146;BME280;63641;46.526;24.612;2023-09-30T09:41:51;97797.03;;;22.00;48.71
75146;BME280;63641;46.526;24.612;2023-09-30T09:44:21;97800.28;;;22.14;48.08
75146;BME280;63641;46.526;24.612;2023-09-30T09:46:49;97787.53;;;22.22;47.50
75146;BME280;63641;46.526;24.612;2023-09-30T09:49:17;97798.09;;;22.32;46.98
75146;BME280;63641;46.526;24.612;2023-09-30T09:51:46;97785.91;;;22.33;46.40
75146;BME280;63641;46.526;24.612;2023-09-30T09:54:14;97781.06;;;22.42;45.98
75146;BME280;63641;46.526;24.612;2023-09-30T09:56:44;97782.09;;;22.50;45.61
75146;BME280;63641;46.526;24.612;2023-09-30T09:59:12;97783.66;;;22.63;45.29
75146;BME280;63641;46.526;24.612;2023-09-30T10:01:40;97785.56;;;22.75;44.71
75146;BME280;63641;46.526;24.612;2023-09-30T10:04:10;97775.63;;;22.86;44.23
75146;BME280;63641;46.526;24.612;2023-09-30T10:06:37;97787.00;;;22.97;44.25
75146;BME280;63641;46.526;24.612;2023-09-30T10:09:10;97781.09;;;23.11;43.52
75146;BME280;63641;46.526;24.612;2023-09-30T10:11:39;97773.91;;;23.22;42.90
75146;BME280;63641;46.526;24.612;2023-09-30T10:14:06;97771.09;;;23.34;42.39
75146;BME280;63641;46.526;24.612;2023-09-30T10:19:21;97768.25;;;23.62;41.61
75146;BME280;63641;46.526;24.612;2023-09-30T10:24:53;97762.03;;;23.81;41.15
75146;BME280;63641;46.526;24.612;2023-09-30T10:40:52;97735.19;;;24.33;40.56
75146;BME280;63641;46.526;24.612;2023-09-30T10:43:38;97739.09;;;24.48;40.23
75146;BME280;63641;46.526;24.612;2023-09-30T10:48:55;97711.66;;;24.58;40.00
75146;BME280;63641;46.526;24.612;2023-09-30T10:51:24;97724.53;;;24.70;39.72
75146;BME280;63641;46.526;24.612;2023-09-30T10:53:53;97718.25;;;24.73;39.51
75146;BME280;63641;46.526;24.612;2023-09-30T10:56:23;97723.94;;;24.80;39.44
75146;BME280;63641;46.526;24.612;2023-09-30T10:58:52;97726.50;;;24.89;39.10
75146;BME280;63641;46.526;24.612;2023-09-30T11:01:21;97712.03;;;24.99;39.40
75146;BME280;63641;46.526;24.612;2023-09-30T11:03:50;97708.56;;;25.02;39.20
75146;BME280;63641;46.526;24.612;2023-09-30T11:06:22;97700.69;;;25.04;38.88
75146;BME280;63641;46.526;24.612;2023-09-30T11:09:00;97702.56;;;25.20;38.64
75146;BME280;63641;46.526;24.612;2023-09-30T11:14:29;97691.50;;;25.20;38.64
75146;BME280;63641;46.526;24.612;2023-09-30T11:17:00;97698.69;;;25.24;38.72
75146;BME280;63641;46.526;24.612;2023-09-30T11:19:46;97699.63;;;25.32;38.85
75146;BME280;63641;46.526;24.612;2023-09-30T11:22:16;97690.25;;;25.40;38.52
75146;BME280;63641;46.526;24.612;2023-09-30T11:24:43;97683.06;;;25.36;38.17
75146;BME280;63641;46.526;24.612;2023-09-30T11:27:12;97685.94;;;25.43;38.15
75146;BME280;63641;46.526;24.612;2023-09-30T11:29:49;97674.53;;;25.48;37.81
75146;BME280;63641;46.526;24.612;2023-09-30T11:32:26;97671.59;;;25.60;37.76
75146;BME280;63641;46.526;24.612;2023-09-30T11:34:53;97680.50;;;25.73;37.56
75146;BME280;63641;46.526;24.612;2023-09-30T11:37:20;97664.66;;;25.73;37.75
75146;BME280;63641;46.526;24.612;2023-09-30T11:39:48;97674.34;;;25.83;37.25
75146;BME280;63641;46.526;24.612;2023-09-30T11:42:18;97669.53;;;25.80;37.15
75146;BME280;63641;46.526;24.612;2023-09-30T11:44:47;97666.28;;;25.74;37.16
75146;BME280;63641;46.526;24.612;2023-09-30T11:47:14;97663.06;;;25.72;36.81
75146;BME280;63641;46.526;24.612;2023-09-30T11:49:52;97656.34;;;25.73;36.81
75146;BME280;63641;46.526;24.612;2023-09-30T11:52:26;97651.31;;;25.79;36.56
75146;BME280;63641;46.526;24.612;2023-09-30T11:54:53;97645.69;;;25.75;36.59
75146;BME280;63641;46.526;24.612;2023-09-30T11:57:20;97645.44;;;25.84;36.53
75146;BME280;63641;46.526;24.612;2023-09-30T11:59:47;97632.44;;;25.88;35.91
75146;BME280;63641;46.526;24.612;2023-09-30T12:02:15;97635.41;;;26.02;34.82
75146;BME280;63641;46.526;24.612;2023-09-30T12:04:45;97632.41;;;26.15;34.89
75146;BME280;63641;46.526;24.612;2023-09-30T12:07:14;97626.38;;;26.09;34.12
75146;BME280;63641;46.526;24.612;2023-09-30T12:09:41;97618.50;;;26.11;33.87
75146;BME280;63641;46.526;24.612;2023-09-30T12:12:09;97633.66;;;26.21;33.33
75146;BME280;63641;46.526;24.612;2023-09-30T12:14:37;97632.88;;;26.20;33.04
75146;BME280;63641;46.526;24.612;2023-09-30T12:17:04;97622.97;;;26.19;33.07
75146;BME280;63641;46.526;24.612;2023-09-30T12:19:31;97632.50;;;26.22;32.45
75146;BME280;63641;46.526;24.612;2023-09-30T12:21:58;97621.72;;;26.17;32.85
75146;BME280;63641;46.526;24.612;2023-09-30T12:24:25;97616.97;;;26.17;32.13
75146;BME280;63641;46.526;24.612;2023-09-30T12:26:54;97616.22;;;26.20;31.93
75146;BME280;63641;46.526;24.612;2023-09-30T12:29:22;97636.81;;;26.19;31.47
75146;BME280;63641;46.526;24.612;2023-09-30T12:31:51;97616.56;;;26.15;30.84
75146;BME280;63641;46.526;24.612;2023-09-30T12:34:20;97618.47;;;26.08;31.24
75146;BME280;63641;46.526;24.612;2023-09-30T12:36:50;97613.69;;;26.08;31.35
75146;BME280;63641;46.526;24.612;2023-09-30T12:39:17;97606.13;;;26.05;31.68
75146;BME280;63641;46.526;24.612;2023-09-30T12:41:50;97612.13;;;26.07;31.67
75146;BME280;63641;46.526;24.612;2023-09-30T12:44:17;97604.63;;;26.11;32.07
75146;BME280;63641;46.526;24.612;2023-09-30T12:46:44;97601.13;;;26.14;32.38
75146;BME280;63641;46.526;24.612;2023-09-30T12:49:10;97597.94;;;26.16;32.60
75146;BME280;63641;46.526;24.612;2023-09-30T12:51:37;97595.63;;;26.21;32.80
75146;BME280;63641;46.526;24.612;2023-09-30T12:54:04;97598.09;;;26.26;32.81
75146;BME280;63641;46.526;24.612;2023-09-30T12:56:30;97594.13;;;26.27;32.57
75146;BME280;63641;46.526;24.612;2023-09-30T12:58:58;97598.88;;;26.27;33.12
75146;BME280;63641;46.526;24.612;2023-09-30T13:01:25;97598.09;;;26.26;33.05
75146;BME280;63641;46.526;24.612;2023-09-30T13:03:52;97594.13;;;26.27;33.23
75146;BME280;63641;46.526;24.612;2023-09-30T13:06:19;97602.50;;;26.31;33.06
75146;BME280;63641;46.526;24.612;2023-09-30T13:08:46;97592.63;;;26.34;33.44
75146;BME280;63641;46.526;24.612;2023-09-30T13:11:13;97591.03;;;26.36;33.28
75146;BME280;63641;46.526;24.612;2023-09-30T13:13:40;97584.72;;;26.36;33.53
75146;BME280;63641;46.526;24.612;2023-09-30T13:16:09;97581.13;;;26.35;33.52
75146;BME280;63641;46.526;24.612;2023-09-30T13:18:36;97582.38;;;26.38;33.79
75146;BME280;63641;46.526;24.612;2023-09-30T13:21:03;97570.91;;;26.43;33.66
75146;BME280;63641;46.526;24.612;2023-09-30T13:23:32;97571.78;;;26.47;33.75
75146;BME280;63641;46.526;24.612;2023-09-30T13:25:59;97574.56;;;26.47;33.95